sensor_id;sensor_type;location;lat;lon;timestamp;pressure;altitude;pressure_sealevel;temperature;humidity
25232;BME280;13176;51.140;6.290;2023-05-08T00:02:11;101239.94;;;19.36;92.61
25232;BME280;13176;51.140;6.290;2023-05-08T00:04:38;101176.03;;;19.02;92.06
25232;BME280;13176;51.140;6.290;2023-05-08T00:07:05;101196.75;;;19.14;92.04
25232;BME280;13176;51.140;6.290;2023-05-08T00:09:34;101177.75;;;19.03;91.49
25232;BME280;13176;51.140;6.290;2023-05-08T00:12:00;101267.88;;;19.43;92.13
25232;BME280;13176;51.140;6.290;2023-05-08T00:14:29;101183.16;;;19.00;92.19
25232;BME280;13176;51.140;6.290;2023-05-08T00:16:55;101271.63;;;19.58;92.02
25232;BME280;13176;51.140;6.290;2023-05-08T00:19:22;101145.03;;;18.84;91.88
25232;BME280;13176;51.140;6.290;2023-05-08T00:21:48;101193.03;;;19.18;91.52
25232;BME280;13176;51.140;6.290;2023-05-08T00:24:15;101215.06;;;19.18;90.83
25232;BME280;13176;51.140;6.290;2023-05-08T00:26:41;101215.69;;;19.25;91.07
25232;BME280;13176;51.140;6.290;2023-05-08T00:29:09;101190.19;;;19.01;90.48
25232;BME280;13176;51.140;6.290;2023-05-08T00:31:36;101227.56;;;19.15;91.16
25232;BME280;13176;51.140;6.290;2023-05-08T00:34:03;101283.63;;;19.46;91.59
25232;BME280;13176;51.140;6.290;2023-05-08T00:36:29;101273.53;;;19.34;91.57
25232;BME280;13176;51.140;6.290;2023-05-08T00:38:55;101205.88;;;18.84;92.21
25232;BME280;13176;51.140;6.290;2023-05-08T00:41:25;101188.44;;;18.78;92.21
25232;BME280;13176;51.140;6.290;2023-05-08T00:43:52;101273.53;;;19.34;92.00
25232;BME280;13176;51.140;6.290;2023-05-08T00:46:19;101147.97;;;18.55;91.84
25232;BME280;13176;51.140;6.290;2023-05-08T00:48:45;101218.59;;;18.96;91.07
25232;BME280;13176;51.140;6.290;2023-05-08T00:51:13;101141.09;;;18.51;91.48
25232;BME280;13176;51.140;6.290;2023-05-08T00:53:41;101237.56;;;19.07;91.75
25232;BME280;13176;51.140;6.290;2023-05-08T00:56:13;101281.22;;;19.40;91.44
25232;BME280;13176;51.140;6.290;2023-05-08T00:58:40;101195.34;;;18.82;91.18
25232;BME280;13176;51.140;6.290;2023-05-08T01:01:07;101211.84;;;18.89;90.91
25232;BME280;13176;51.140;6.290;2023-05-08T01:03:37;101212.38;;;18.97;90.75
25232;BME280;13176;51.140;6.290;2023-05-08T01:06:05;101177.97;;;18.75;90.62
25232;BME280;13176;51.140;6.290;2023-05-08T01:08:32;101280.94;;;19.26;89.61
25232;BME280;13176;51.140;6.290;2023-05-08T01:11:12;101305.41;;;19.31;89.39
25232;BME280;13176;51.140;6.290;2023-05-08T01:19:11;101245.53;;;18.84;92.01
25232;BME280;13176;51.140;6.290;2023-05-08T01:21:52;101217.94;;;18.68;92.34
25232;BME280;13176;51.140;6.290;2023-05-08T01:33:48;101247.69;;;18.96;90.76
25232;BME280;13176;51.140;6.290;2023-05-08T01:36:45;101296.94;;;19.23;91.65
25232;BME280;13176;51.140;6.290;2023-05-08T01:39:25;101300.63;;;19.19;91.50
25232;BME280;13176;51.140;6.290;2023-05-08T01:42:07;101260.69;;;19.02;91.60
25232;BME280;13176;51.140;6.290;2023-05-08T01:44:50;101303.72;;;19.30;91.55
25232;BME280;13176;51.140;6.290;2023-05-08T01:47:19;101263.91;;;19.10;91.49
25232;BME280;13176;51.140;6.290;2023-05-08T01:49:51;101115.94;;;18.18;90.84
25232;BME280;13176;51.140;6.290;2023-05-08T01:52:32;101279.50;;;19.17;91.19
25232;BME280;13176;51.140;6.290;2023-05-08T01:55:04;101308.88;;;19.33;91.64
25232;BME280;13176;51.140;6.290;2023-05-08T01:57:36;101281.41;;;19.14;91.01
25232;BME280;13176;51.140;6.290;2023-05-08T02:00:04;101290.97;;;19.18;91.77
25232;BME280;13176;51.140;6.290;2023-05-08T02:02:31;101214.88;;;18.78;91.24
25232;BME280;13176;51.140;6.290;2023-05-08T02:05:02;101281.50;;;19.11;91.48
25232;BME280;13176;51.140;6.290;2023-05-08T02:07:33;101244.44;;;18.89;90.68
25232;BME280;13176;51.140;6.290;2023-05-08T02:10:04;101276.56;;;19.02;91.41
25232;BME280;13176;51.140;6.290;2023-05-08T02:12:31;101303.44;;;19.14;92.25
25232;BME280;13176;51.140;6.290;2023-05-08T02:15:00;101326.97;;;19.22;92.04
25232;BME280;13176;51.140;6.290;2023-05-08T02:17:28;101265.59;;;18.89;91.69
25232;BME280;13176;51.140;6.290;2023-05-08T02:19:57;101293.72;;;19.15;91.97
25232;BME280;13176;51.140;6.290;2023-05-08T02:22:27;101324.63;;;19.36;91.40
25232;BME280;13176;51.140;6.290;2023-05-08T02:24:59;101239.59;;;18.77;91.38
25232;BME280;13176;51.140;6.290;2023-05-08T02:27:29;101262.00;;;18.92;91.45
25232;BME280;13176;51.140;6.290;2023-05-08T02:29:57;101317.72;;;19.32;90.92
25232;BME280;13176;51.140;6.290;2023-05-08T02:32:28;101281.84;;;19.02;91.47
25232;BME280;13176;51.140;6.290;2023-05-08T02:34:56;101231.97;;;18.70;91.97
25232;BME280;13176;51.140;6.290;2023-05-08T02:37:29;101309.25;;;19.24;91.87
25232;BME280;13176;51.140;6.290;2023-05-08T02:39:57;101313.88;;;19.19;92.13
25232;BME280;13176;51.140;6.290;2023-05-08T02:42:24;101271.28;;;19.02;92.16
25232;BME280;13176;51.140;6.290;2023-05-08T02:44:51;101292.00;;;19.14;91.90
25232;BME280;13176;51.140;6.290;2023-05-08T02:47:21;101315.28;;;19.27;91.89
25232;BME280;13176;51.140;6.290;2023-05-08T02:49:53;101198.25;;;18.53;91.17
25232;BME280;13176;51.140;6.290;2023-05-08T02:52:27;101322.91;;;19.35;91.43
25232;BME280;13176;51.140;6.290;2023-05-08T02:55:15;101319.59;;;19.30;91.41
25232;BME280;13176;51.140;6.290;2023-05-08T02:57:59;101320.75;;;19.23;91.71
25232;BME280;13176;51.140;6.290;2023-05-08T03:00:32;101164.88;;;18.28;92.39
25232;BME280;13176;51.140;6.290;2023-05-08T03:03:20;101318.00;;;19.26;91.88
25232;BME280;13176;51.140;6.290;2023-05-08T03:05:51;101317.00;;;19.28;91.79
25232;BME280;13176;51.140;6.290;2023-05-08T03:08:29;101310.72;;;19.31;91.35
25232;BME280;13176;51.140;6.290;2023-05-08T03:10:58;101191.50;;;18.68;90.69
25232;BME280;13176;51.140;6.290;2023-05-08T03:13:27;101312.19;;;19.38;90.66
25232;BME280;13176;51.140;6.290;2023-05-08T03:15:59;101265.53;;;19.14;91.02
25232;BME280;13176;51.140;6.290;2023-05-08T03:18:57;101246.66;;;19.00;91.18
25232;BME280;13176;51.140;6.290;2023-05-08T03:21:27;101294.19;;;19.26;91.06
25232;BME280;13176;51.140;6.290;2023-05-08T03:25:34;101283.22;;;19.12;91.05
25232;BME280;13176;51.140;6.290;2023-05-08T03:28:02;101269.31;;;19.07;91.09
25232;BME280;13176;51.140;6.290;2023-05-08T03:30:32;101283.19;;;19.13;91.16
25232;BME280;13176;51.140;6.290;2023-05-08T03:33:02;101317.63;;;19.35;91.31
25232;BME280;13176;51.140;6.290;2023-05-08T03:35:30;101309.25;;;19.24;91.32
25232;BME280;13176;51.140;6.290;2023-05-08T03:37:57;101270.31;;;19.04;91.68
25232;BME280;13176;51.140;6.290;2023-05-08T03:40:24;101254.06;;;18.92;91.17
25232;BME280;13176;51.140;6.290;2023-05-08T03:42:53;101285.06;;;19.10;90.95
25232;BME280;13176;51.140;6.290;2023-05-08T03:45:20;101192.94;;;18.55;91.32
25232;BME280;13176;51.140;6.290;2023-05-08T03:47:47;101274.59;;;19.07;91.49
25232;BME280;13176;51.140;6.290;2023-05-08T03:50:36;101180.06;;;18.46;91.08
25232;BME280;13176;51.140;6.290;2023-05-08T03:53:03;101295.47;;;19.16;90.69
25232;BME280;13176;51.140;6.290;2023-05-08T03:55:30;101179.94;;;18.49;90.60
25232;BME280;13176;51.140;6.290;2023-05-08T03:58:18;101218.94;;;18.65;90.34
25232;BME280;13176;51.140;6.290;2023-05-08T04:03:35;101318.13;;;19.23;90.72
25232;BME280;13176;51.140;6.290;2023-05-08T04:06:10;101275.25;;;18.90;91.24
25232;BME280;13176;51.140;6.290;2023-05-08T04:08:43;101295.47;;;18.93;91.98
25232;BME280;13176;51.140;6.290;2023-05-08T04:11:29;101327.22;;;19.16;91.63
25232;BME280;13176;51.140;6.290;2023-05-08T04:14:03;101322.91;;;19.12;91.89
25232;BME280;13176;51.140;6.290;2023-05-08T04:16:39;101323.94;;;19.08;92.01
25232;BME280;13176;51.140;6.290;2023-05-08T04:19:18;101259.69;;;18.83;91.49
25232;BME280;13176;51.140;6.290;2023-05-08T04:21:45;101295.09;;;19.02;91.11
25232;BME280;13176;51.140;6.290;2023-05-08T04:24:14;101225.47;;;18.57;91.36
25232;BME280;13176;51.140;6.290;2023-05-08T04:26:43;101215.66;;;18.59;91.58
25232;BME280;13176;51.140;6.290;2023-05-08T04:29:10;101264.00;;;18.85;91.91
25232;BME280;13176;51.140;6.290;2023-05-08T04:31:39;101285.31;;;19.04;92.11
25232;BME280;13176;51.140;6.290;2023-05-08T04:34:06;101307.88;;;19.14;92.42
25232;BME280;13176;51.140;6.290;2023-05-08T04:36:34;101330.44;;;19.24;92.30
25232;BME280;13176;51.140;6.290;2023-05-08T04:39:01;101313.19;;;19.14;92.45
25232;BME280;13176;51.140;6.290;2023-05-08T04:41:27;101232.09;;;18.67;92.29
25232;BME280;13176;51.140;6.290;2023-05-08T04:43:54;101304.19;;;19.18;91.79
25232;BME280;13176;51.140;6.290;2023-05-08T04:46:20;101306.41;;;19.28;90.77
25232;BME280;13176;51.140;6.290;2023-05-08T04:48:47;101211.50;;;18.75;90.49
25232;BME280;13176;51.140;6.290;2023-05-08T04:51:13;101286.47;;;19.20;90.19
25232;BME280;13176;51.140;6.290;2023-05-08T04:53:39;101323.03;;;19.32;89.61
25232;BME280;13176;51.140;6.290;2023-05-08T04:56:06;101300.50;;;19.22;90.17
25232;BME280;13176;51.140;6.290;2023-05-08T04:58:32;101288.88;;;19.03;90.13
25232;BME280;13176;51.140;6.290;2023-05-08T05:01:02;101300.63;;;19.19;89.84
25232;BME280;13176;51.140;6.290;2023-05-08T05:03:29;101304.94;;;19.21;89.68
25232;BME280;13176;51.140;6.290;2023-05-08T05:05:57;101324.91;;;19.30;90.14
25232;BME280;13176;51.140;6.290;2023-05-08T05:08:24;101335.09;;;19.39;89.81
25232;BME280;13176;51.140;6.290;2023-05-08T05:10:51;101224.50;;;18.81;89.11
25232;BME280;13176;51.140;6.290;2023-05-08T05:13:17;101335.06;;;19.40;89.44
25232;BME280;13176;51.140;6.290;2023-05-08T05:15:45;101311.47;;;19.34;89.65
25232;BME280;13176;51.140;6.290;2023-05-08T05:18:11;101243.22;;;18.98;89.67
25232;BME280;13176;51.140;6.290;2023-05-08T05:20:38;101341.66;;;19.52;89.30
25232;BME280;13176;51.140;6.290;2023-05-08T05:23:04;101221.56;;;18.88;88.82
25232;BME280;13176;51.140;6.290;2023-05-08T05:25:31;101242.13;;;19.03;88.80
25232;BME280;13176;51.140;6.290;2023-05-08T05:27:57;101335.72;;;19.66;88.95
25232;BME280;13176;51.140;6.290;2023-05-08T05:30:23;101320.78;;;19.65;88.38
25232;BME280;13176;51.140;6.290;2023-05-08T05:32:50;101245.84;;;19.21;87.51
25232;BME280;13176;51.140;6.290;2023-05-08T05:35:16;101349.72;;;19.91;87.66
25232;BME280;13176;51.140;6.290;2023-05-08T05:37:43;101297.34;;;19.55;86.71
25232;BME280;13176;51.140;6.290;2023-05-08T05:40:09;101292.63;;;19.63;87.15
25232;BME280;13176;51.140;6.290;2023-05-08T05:42:38;101367.38;;;20.12;87.26
25232;BME280;13176;51.140;6.290;2023-05-08T05:45:05;101360.09;;;20.17;87.87
25232;BME280;13176;51.140;6.290;2023-05-08T05:47:31;101357.66;;;20.13;87.04
25232;BME280;13176;51.140;6.290;2023-05-08T05:49:58;101349.03;;;20.08;86.93
25232;BME280;13176;51.140;6.290;2023-05-08T05:52:24;101273.06;;;19.46;86.18
25232;BME280;13176;51.140;6.290;2023-05-08T05:54:51;101264.31;;;19.44;86.75
25232;BME280;13176;51.140;6.290;2023-05-08T05:57:17;101354.59;;;20.02;87.29
25232;BME280;13176;51.140;6.290;2023-05-08T05:59:46;101271.19;;;19.48;86.34
25232;BME280;13176;51.140;6.290;2023-05-08T06:02:18;101387.28;;;20.02;87.23
25232;BME280;13176;51.140;6.290;2023-05-08T06:04:45;101269.97;;;19.35;87.26
25232;BME280;13176;51.140;6.290;2023-05-08T06:07:12;101381.22;;;19.99;86.94
25232;BME280;13176;51.140;6.290;2023-05-08T06:09:38;101278.22;;;19.49;87.12
25232;BME280;13176;51.140;6.290;2023-05-08T06:12:04;101365.91;;;20.05;86.92
25232;BME280;13176;51.140;6.290;2023-05-08T06:14:31;101359.97;;;20.00;86.40
25232;BME280;13176;51.140;6.290;2023-05-08T06:17:00;101360.69;;;20.24;86.59
25232;BME280;13176;51.140;6.290;2023-05-08T06:19:26;101377.75;;;20.38;88.22
25232;BME280;13176;51.140;6.290;2023-05-08T06:21:53;101253.47;;;19.69;86.43
25232;BME280;13176;51.140;6.290;2023-05-08T06:24:21;101381.19;;;20.60;85.65
25232;BME280;13176;51.140;6.290;2023-05-08T06:26:47;101258.94;;;19.86;85.27
25232;BME280;13176;51.140;6.290;2023-05-08T06:29:14;101393.66;;;20.58;84.29
25232;BME280;13176;51.140;6.290;2023-05-08T06:31:41;101364.22;;;20.44;84.86
25232;BME280;13176;51.140;6.290;2023-05-08T06:34:10;101327.38;;;20.38;85.37
25232;BME280;13176;51.140;6.290;2023-05-08T06:36:36;101301.13;;;20.32;84.71
25232;BME280;13176;51.140;6.290;2023-05-08T06:39:04;101320.97;;;20.62;83.79
25232;BME280;13176;51.140;6.290;2023-05-08T06:41:31;101388.22;;;21.01;84.48
25232;BME280;13176;51.140;6.290;2023-05-08T06:43:57;101325.75;;;20.74;85.09
25232;BME280;13176;51.140;6.290;2023-05-08T06:46:24;101388.34;;;20.98;84.99
25232;BME280;13176;51.140;6.290;2023-05-08T06:48:51;101380.94;;;20.86;84.45
25232;BME280;13176;51.140;6.290;2023-05-08T06:51:17;101380.66;;;20.72;84.02
25232;BME280;13176;51.140;6.290;2023-05-08T06:53:45;101294.22;;;20.08;83.80
25232;BME280;13176;51.140;6.290;2023-05-08T06:56:11;101376.59;;;20.64;84.59
25232;BME280;13176;51.140;6.290;2023-05-08T06:58:37;101401.38;;;20.84;83.71
25232;BME280;13176;51.140;6.290;2023-05-08T07:01:04;101389.44;;;20.74;84.31
25232;BME280;13176;51.140;6.290;2023-05-08T07:03:30;101395.94;;;20.67;84.05
25232;BME280;13176;51.140;6.290;2023-05-08T07:06:00;101371.25;;;20.45;84.62
25232;BME280;13176;51.140;6.290;2023-05-08T07:08:26;101326.31;;;20.22;84.67
25232;BME280;13176;51.140;6.290;2023-05-08T07:10:55;101417.41;;;20.61;85.12
25232;BME280;13176;51.140;6.290;2023-05-08T07:13:21;101251.13;;;19.63;85.29
25232;BME280;13176;51.140;6.290;2023-05-08T07:15:48;101224.00;;;19.57;84.71
25232;BME280;13176;51.140;6.290;2023-05-08T07:18:14;101406.94;;;20.58;84.99
25232;BME280;13176;51.140;6.290;2023-05-08T07:20:41;101384.38;;;20.28;85.58
25232;BME280;13176;51.140;6.290;2023-05-08T07:23:10;101404.53;;;20.52;85.79
25232;BME280;13176;51.140;6.290;2023-05-08T07:25:37;101310.94;;;19.89;85.85
25232;BME280;13176;51.140;6.290;2023-05-08T07:28:04;101368.09;;;20.37;85.75
25232;BME280;13176;51.140;6.290;2023-05-08T07:30:32;101404.41;;;20.55;85.80
25232;BME280;13176;51.140;6.290;2023-05-08T07:33:02;101235.97;;;19.46;85.82
25232;BME280;13176;51.140;6.290;2023-05-08T07:35:29;101394.19;;;20.46;85.92
25232;BME280;13176;51.140;6.290;2023-05-08T07:37:55;101334.84;;;20.09;86.27
25232;BME280;13176;51.140;6.290;2023-05-08T07:40:22;101329.31;;;20.15;86.19
25232;BME280;13176;51.140;6.290;2023-05-08T07:42:48;101259.41;;;19.76;85.57
25232;BME280;13176;51.140;6.290;2023-05-08T07:45:17;101415.97;;;20.74;85.57
25232;BME280;13176;51.140;6.290;2023-05-08T07:47:56;101369.53;;;20.64;85.87
25232;BME280;13176;51.140;6.290;2023-05-08T07:50:24;101399.25;;;20.92;85.66
25232;BME280;13176;51.140;6.290;2023-05-08T07:52:58;101306.31;;;20.35;85.22
25232;BME280;13176;51.140;6.290;2023-05-08T07:55:25;101404.28;;;20.98;84.46
25232;BME280;13176;51.140;6.290;2023-05-08T07:57:51;101416.00;;;21.12;84.20
25232;BME280;13176;51.140;6.290;2023-05-08T08:00:17;101415.16;;;21.12;83.65
25232;BME280;13176;51.140;6.290;2023-05-08T08:02:46;101419.16;;;21.02;84.69
25232;BME280;13176;51.140;6.290;2023-05-08T08:05:13;101298.56;;;20.49;83.23
25232;BME280;13176;51.140;6.290;2023-05-08T08:07:40;101321.53;;;20.50;82.90
25232;BME280;13176;51.140;6.290;2023-05-08T08:10:07;101304.00;;;20.46;82.91
25232;BME280;13176;51.140;6.290;2023-05-08T08:12:36;101330.78;;;20.80;82.30
25232;BME280;13176;51.140;6.290;2023-05-08T08:15:03;101326.59;;;20.74;81.40
25232;BME280;13176;51.140;6.290;2023-05-08T08:17:29;101411.78;;;21.27;81.33
25232;BME280;13176;51.140;6.290;2023-05-08T08:19:56;101423.75;;;21.35;80.91
25232;BME280;13176;51.140;6.290;2023-05-08T08:22:27;101306.06;;;20.78;80.75
25232;BME280;13176;51.140;6.290;2023-05-08T08:24:56;101360.38;;;21.09;81.03
25232;BME280;13176;51.140;6.290;2023-05-08T08:27:22;101240.19;;;20.51;79.34
25232;BME280;13176;51.140;6.290;2023-05-08T08:29:49;101353.91;;;21.15;78.99
25232;BME280;13176;51.140;6.290;2023-05-08T08:32:24;101342.22;;;21.19;77.97
25232;BME280;13176;51.140;6.290;2023-05-08T08:34:50;101353.22;;;21.30;77.04
25232;BME280;13176;51.140;6.290;2023-05-08T08:37:17;101242.41;;;20.78;76.86
25232;BME280;13176;51.140;6.290;2023-05-08T08:39:49;101365.13;;;21.58;76.80
25232;BME280;13176;51.140;6.290;2023-05-08T08:42:15;101288.53;;;21.31;77.39
25232;BME280;13176;51.140;6.290;2023-05-08T08:44:42;101388.81;;;22.16;76.60
25232;BME280;13176;51.140;6.290;2023-05-08T08:47:10;101343.41;;;22.02;75.06
25232;BME280;13176;51.140;6.290;2023-05-08T08:49:42;101382.00;;;22.45;75.99
25232;BME280;13176;51.140;6.290;2023-05-08T08:52:30;101409.69;;;22.92;75.90
25232;BME280;13176;51.140;6.290;2023-05-08T08:54:59;101344.66;;;22.63;76.36
25232;BME280;13176;51.140;6.290;2023-05-08T08:57:35;101317.50;;;22.74;72.52
25232;BME280;13176;51.140;6.290;2023-05-08T09:00:06;101385.78;;;23.39;72.12
25232;BME280;13176;51.140;6.290;2023-05-08T09:02:36;101346.19;;;23.32;71.81
25232;BME280;13176;51.140;6.290;2023-05-08T09:05:03;101241.16;;;22.74;68.16
25232;BME280;13176;51.140;6.290;2023-05-08T09:07:30;101329.97;;;23.36;67.98
25232;BME280;13176;51.140;6.290;2023-05-08T09:10:04;101384.41;;;23.79;68.13
25232;BME280;13176;51.140;6.290;2023-05-08T09:12:31;101389.56;;;23.82;67.50
25232;BME280;13176;51.140;6.290;2023-05-08T09:14:57;101393.44;;;23.76;66.61
25232;BME280;13176;51.140;6.290;2023-05-08T09:17:24;101270.47;;;23.05;65.99
25232;BME280;13176;51.140;6.290;2023-05-08T09:19:53;101274.84;;;23.06;64.43
25232;BME280;13176;51.140;6.290;2023-05-08T09:22:19;101361.84;;;23.53;63.83
25232;BME280;13176;51.140;6.290;2023-05-08T09:25:02;101376.50;;;23.62;64.34
25232;BME280;13176;51.140;6.290;2023-05-08T09:27:30;101204.06;;;22.71;63.87
25232;BME280;13176;51.140;6.290;2023-05-08T09:30:05;101309.59;;;23.51;66.16
25232;BME280;13176;51.140;6.290;2023-05-08T09:32:40;101202.00;;;23.07;65.51
25232;BME280;13176;51.140;6.290;2023-05-08T09:35:08;101374.69;;;24.23;65.58
25232;BME280;13176;51.140;6.290;2023-05-08T09:37:39;101262.28;;;23.54;62.99
25232;BME280;13176;51.140;6.290;2023-05-08T09:42:42;101309.47;;;24.13;63.83
25232;BME280;13176;51.140;6.290;2023-05-08T09:45:09;101366.28;;;24.73;65.39
25232;BME280;13176;51.140;6.290;2023-05-08T09:47:36;101393.00;;;25.01;65.78
25232;BME280;13176;51.140;6.290;2023-05-08T09:50:17;101353.69;;;25.03;68.82
25232;BME280;13176;51.140;6.290;2023-05-08T09:52:48;101397.41;;;25.30;61.40
25232;BME280;13176;51.140;6.290;2023-05-08T09:55:18;101382.59;;;25.39;60.64
25232;BME280;13176;51.140;6.290;2023-05-08T09:57:56;101397.25;;;25.87;62.12
25232;BME280;13176;51.140;6.290;2023-05-08T10:00:27;101398.41;;;26.10;63.83
25232;BME280;13176;51.140;6.290;2023-05-08T10:03:01;101394.97;;;26.08;61.43
25232;BME280;13176;51.140;6.290;2023-05-08T10:05:29;101377.88;;;26.23;62.10
25232;BME280;13176;51.140;6.290;2023-05-08T10:08:16;101304.16;;;25.78;58.77
25232;BME280;13176;51.140;6.290;2023-05-08T10:10:43;101291.88;;;25.76;60.04
25232;BME280;13176;51.140;6.290;2023-05-08T10:13:10;101288.94;;;25.93;56.80
25232;BME280;13176;51.140;6.290;2023-05-08T10:15:41;101280.34;;;25.88;58.04
25232;BME280;13176;51.140;6.290;2023-05-08T10:18:08;101317.91;;;26.13;56.61
25232;BME280;13176;51.140;6.290;2023-05-08T10:20:40;101222.78;;;25.56;55.05
25232;BME280;13176;51.140;6.290;2023-05-08T10:23:09;101357.75;;;26.30;54.63
25232;BME280;13176;51.140;6.290;2023-05-08T10:25:43;101299.25;;;26.24;56.55
25232;BME280;13176;51.140;6.290;2023-05-08T10:28:35;101360.19;;;26.96;55.32
25232;BME280;13176;51.140;6.290;2023-05-08T10:31:02;101348.84;;;27.05;55.41
25232;BME280;13176;51.140;6.290;2023-05-08T10:33:33;101346.69;;;27.10;54.77
25232;BME280;13176;51.140;6.290;2023-05-08T10:36:00;101344.75;;;27.12;55.14
25232;BME280;13176;51.140;6.290;2023-05-08T10:38:29;101305.78;;;26.71;55.38
25232;BME280;13176;51.140;6.290;2023-05-08T10:40:59;101370.94;;;27.09;53.55
25232;BME280;13176;51.140;6.290;2023-05-08T10:43:28;101238.72;;;26.48;53.60
25232;BME280;13176;51.140;6.290;2023-05-08T10:46:02;101294.81;;;26.86;53.02
25232;BME280;13176;51.140;6.290;2023-05-08T10:48:45;101374.34;;;26.98;53.27
25232;BME280;13176;51.140;6.290;2023-05-08T10:51:24;101367.53;;;27.07;49.81
25232;BME280;13176;51.140;6.290;2023-05-08T10:53:58;101346.56;;;27.73;49.16
25232;BME280;13176;51.140;6.290;2023-05-08T10:56:27;101359.22;;;29.30;44.81
25232;BME280;13176;51.140;6.290;2023-05-08T10:58:55;101350.25;;;29.62;42.13
25232;BME280;13176;51.140;6.290;2023-05-08T11:01:23;101344.41;;;29.57;44.56
25232;BME280;13176;51.140;6.290;2023-05-08T11:03:50;101351.06;;;29.74;43.53
25232;BME280;13176;51.140;6.290;2023-05-08T11:06:43;101250.03;;;30.01;43.14
25232;BME280;13176;51.140;6.290;2023-05-08T11:09:29;101343.28;;;31.25;39.27
25232;BME280;13176;51.140;6.290;2023-05-08T11:12:26;101356.63;;;31.26;38.45
25232;BME280;13176;51.140;6.290;2023-05-08T11:14:59;101357.88;;;29.35;43.28
25232;BME280;13176;51.140;6.290;2023-05-08T11:17:26;101267.28;;;28.03;46.72
25232;BME280;13176;51.140;6.290;2023-05-08T11:20:02;101332.72;;;27.66;47.99
25232;BME280;13176;51.140;6.290;2023-05-08T11:22:36;101190.28;;;26.38;48.93
25232;BME280;13176;51.140;6.290;2023-05-08T11:25:08;101340.69;;;26.94;51.58
25232;BME280;13176;51.140;6.290;2023-05-08T11:30:35;101343.91;;;26.74;53.72
25232;BME280;13176;51.140;6.290;2023-05-08T11:38:17;101334.06;;;26.24;55.97
25232;BME280;13176;51.140;6.290;2023-05-08T11:48:26;101258.66;;;25.66;56.48
25232;BME280;13176;51.140;6.290;2023-05-08T11:50:53;101335.84;;;25.58;53.95
25232;BME280;13176;51.140;6.290;2023-05-08T11:53:19;101221.63;;;25.07;56.00
25232;BME280;13176;51.140;6.290;2023-05-08T11:55:47;101336.78;;;25.71;54.62
25232;BME280;13176;51.140;6.290;2023-05-08T11:58:14;101169.81;;;24.69;53.20
25232;BME280;13176;51.140;6.290;2023-05-08T12:00:42;101263.81;;;25.02;54.84
25232;BME280;13176;51.140;6.290;2023-05-08T12:03:15;101334.97;;;25.31;55.22
25232;BME280;13176;51.140;6.290;2023-05-08T12:05:43;101292.03;;;24.92;56.73
25232;BME280;13176;51.140;6.290;2023-05-08T12:08:10;101303.03;;;24.74;56.79
25232;BME280;13176;51.140;6.290;2023-05-08T12:10:48;101318.75;;;24.92;57.74
25232;BME280;13176;51.140;6.290;2023-05-08T12:13:24;101326.00;;;25.18;57.77
25232;BME280;13176;51.140;6.290;2023-05-08T12:15:59;101295.09;;;24.58;57.18
25232;BME280;13176;51.140;6.290;2023-05-08T12:18:27;101314.75;;;24.99;58.71
25232;BME280;13176;51.140;6.290;2023-05-08T12:20:59;101314.00;;;25.11;59.16
25232;BME280;13176;51.140;6.290;2023-05-08T12:23:26;101273.91;;;24.97;60.02
25232;BME280;13176;51.140;6.290;2023-05-08T12:25:57;101290.03;;;25.10;60.14
25232;BME280;13176;51.140;6.290;2023-05-08T12:28:24;101201.94;;;24.40;59.77
25232;BME280;13176;51.140;6.290;2023-05-08T12:30:50;101316.66;;;24.97;60.28
25232;BME280;13176;51.140;6.290;2023-05-08T12:33:18;101283.06;;;24.37;60.14
25232;BME280;13176;51.140;6.290;2023-05-08T12:35:45;101307.22;;;24.64;61.70
25232;BME280;13176;51.140;6.290;2023-05-08T12:38:11;101259.47;;;24.30;61.05
25232;BME280;13176;51.140;6.290;2023-05-08T12:40:45;101203.09;;;23.79;61.14
25232;BME280;13176;51.140;6.290;2023-05-08T12:43:14;101210.75;;;23.69;61.51
25232;BME280;13176;51.140;6.290;2023-05-08T12:45:41;101330.28;;;24.22;61.07
25232;BME280;13176;51.140;6.290;2023-05-08T12:48:09;101305.59;;;23.89;63.56
25232;BME280;13176;51.140;6.290;2023-05-08T12:50:40;101330.22;;;23.63;64.81
25232;BME280;13176;51.140;6.290;2023-05-08T12:53:15;101294.06;;;23.28;65.83
25232;BME280;13176;51.140;6.290;2023-05-08T12:55:53;101324.19;;;23.44;67.59
25232;BME280;13176;51.140;6.290;2023-05-08T12:58:23;101332.97;;;23.46;67.00
25232;BME280;13176;51.140;6.290;2023-05-08T13:00:51;101316.97;;;23.46;67.12
25232;BME280;13176;51.140;6.290;2023-05-08T13:03:26;101306.50;;;23.27;67.71
25232;BME280;13176;51.140;6.290;2023-05-08T13:05:55;101331.09;;;23.48;68.07
25232;BME280;13176;51.140;6.290;2023-05-08T13:08:32;101297.72;;;23.10;67.10
25232;BME280;13176;51.140;6.290;2023-05-08T13:11:00;101322.66;;;23.40;67.70
25232;BME280;13176;51.140;6.290;2023-05-08T13:13:32;101322.16;;;23.33;66.08
25232;BME280;13176;51.140;6.290;2023-05-08T13:16:04;101323.38;;;23.43;65.95
25232;BME280;13176;51.140;6.290;2023-05-08T13:18:32;101305.28;;;23.33;65.21
25232;BME280;13176;51.140;6.290;2023-05-08T13:20:58;101218.78;;;23.09;66.09
25232;BME280;13176;51.140;6.290;2023-05-08T13:23:27;101306.06;;;23.66;68.12
25232;BME280;13176;51.140;6.290;2023-05-08T13:25:54;101337.53;;;23.44;70.70
25232;BME280;13176;51.140;6.290;2023-05-08T13:28:20;101326.03;;;23.43;70.42
25232;BME280;13176;51.140;6.290;2023-05-08T13:30:51;101158.50;;;21.97;73.92
25232;BME280;13176;51.140;6.290;2023-05-08T13:33:18;101267.53;;;22.46;77.20
25232;BME280;13176;51.140;6.290;2023-05-08T13:35:44;101251.97;;;22.22;80.03
25232;BME280;13176;51.140;6.290;2023-05-08T13:38:11;101258.56;;;22.15;81.96
25232;BME280;13176;51.140;6.290;2023-05-08T13:40:37;101265.38;;;22.03;85.14
25232;BME280;13176;51.140;6.290;2023-05-08T13:43:04;101260.16;;;22.02;87.35